createdAt,value
2022-11-16T00:00:49.202Z,10.55
2022-11-16T00:03:17.374Z,10.58
2022-11-16T00:05:44.081Z,10.56
2022-11-16T00:08:10.855Z,10.56
2022-11-16T00:10:38.160Z,10.59
2022-11-16T00:13:04.883Z,10.60
2022-11-16T00:15:31.631Z,10.63
2022-11-16T00:17:58.524Z,10.61
2022-11-16T00:20:26.557Z,10.61
2022-11-16T00:22:53.358Z,10.60
2022-11-16T00:25:20.400Z,10.57
2022-11-16T00:27:49.149Z,10.63
2022-11-16T00:30:16.445Z,10.63
2022-11-16T00:32:43.145Z,10.62
2022-11-16T00:35:09.970Z,10.63
2022-11-16T00:37:38.068Z,10.64
2022-11-16T00:40:06.094Z,10.64
2022-11-16T00:42:33.046Z,10.61
2022-11-16T00:44:59.837Z,10.61
2022-11-16T00:47:27.720Z,10.61
2022-11-16T00:49:54.709Z,10.62
2022-11-16T00:52:21.688Z,10.62
2022-11-16T00:54:50.263Z,10.63
2022-11-16T00:57:17.787Z,10.62
2022-11-16T00:59:48.962Z,10.61
2022-11-16T01:02:16.067Z,10.60
2022-11-16T01:04:42.794Z,10.60
2022-11-16T01:07:09.849Z,10.60
2022-11-16T01:09:36.887Z,10.59
2022-11-16T01:12:12.727Z,10.60
2022-11-16T01:14:41.652Z,10.59
2022-11-16T01:17:09.226Z,10.62
2022-11-16T01:19:38.953Z,10.64
2022-11-16T01:22:06.007Z,10.68
2022-11-16T01:24:32.823Z,10.68
2022-11-16T01:26:59.891Z,10.67
2022-11-16T01:29:32.588Z,10.68
2022-11-16T01:32:01.459Z,10.70
2022-11-16T01:34:28.234Z,10.70
2022-11-16T01:37:01.144Z,10.66
2022-11-16T01:39:31.669Z,10.69
2022-11-16T01:42:01.291Z,10.69
2022-11-16T01:45:06.363Z,10.68
2022-11-16T01:47:33.998Z,10.69
2022-11-16T01:50:09.653Z,10.69
2022-11-16T01:52:42.989Z,10.69
2022-11-16T01:55:11.072Z,10.68
2022-11-16T01:58:01.783Z,10.72
2022-11-16T02:00:31.268Z,10.72
2022-11-16T02:03:13.020Z,10.73
2022-11-16T02:06:02.467Z,10.75
2022-11-16T02:09:02.205Z,10.75
2022-11-16T02:11:47.502Z,10.78
2022-11-16T02:14:25.873Z,10.80
2022-11-16T02:17:01.628Z,10.82
2022-11-16T02:20:07.871Z,10.83
2022-11-16T02:22:51.560Z,10.85
2022-11-16T02:25:28.974Z,10.86
2022-11-16T02:28:16.637Z,10.87
2022-11-16T02:30:50.872Z,10.83
2022-11-16T02:33:22.759Z,10.87
2022-11-16T02:35:52.766Z,10.88
2022-11-16T02:38:31.998Z,10.88
2022-11-16T02:41:03.628Z,10.88
2022-11-16T02:43:37.621Z,10.88
2022-11-16T02:46:12.077Z,10.87
2022-11-16T02:48:43.733Z,10.87
2022-11-16T02:51:11.799Z,10.86
2022-11-16T02:53:51.768Z,10.84
2022-11-16T02:56:20.295Z,10.84
2022-11-16T02:58:48.060Z,10.83
2022-11-16T03:01:25.648Z,10.85
2022-11-16T03:03:57.820Z,10.85
2022-11-16T03:06:29.141Z,10.85
2022-11-16T03:09:02.282Z,10.85
2022-11-16T03:11:51.155Z,10.87
2022-11-16T03:14:23.100Z,10.85
2022-11-16T03:16:56.155Z,10.85
2022-11-16T03:19:29.475Z,10.79
2022-11-16T03:21:59.824Z,10.76
2022-11-16T03:24:26.914Z,10.77
2022-11-16T03:27:01.003Z,10.74
2022-11-16T03:29:31.865Z,10.67
2022-11-16T03:32:13.722Z,10.74
2022-11-16T03:34:45.838Z,10.70
2022-11-16T03:37:14.826Z,10.68
2022-11-16T03:39:42.869Z,10.67
2022-11-16T03:42:14.507Z,10.67
2022-11-16T03:44:46.110Z,10.64
2022-11-16T03:47:14.345Z,10.66
2022-11-16T03:49:44.918Z,10.60
2022-11-16T03:52:14.015Z,10.59
2022-11-16T03:54:41.921Z,10.58
2022-11-16T03:57:15.503Z,10.58
2022-11-16T03:59:45.999Z,10.58
2022-11-16T04:02:14.159Z,10.58
2022-11-16T04:05:16.061Z,10.56
2022-11-16T04:08:02.335Z,10.54
2022-11-16T04:10:48.111Z,10.47
2022-11-16T04:13:36.824Z,10.42
2022-11-16T04:16:22.181Z,10.42
2022-11-16T04:19:09.110Z,10.38
2022-11-16T04:21:58.309Z,10.38
2022-11-16T04:24:31.526Z,10.34
2022-11-16T04:27:21.363Z,10.31
2022-11-16T04:29:48.937Z,10.29
2022-11-16T04:32:34.786Z,10.27
2022-11-16T04:35:21.648Z,10.23
2022-11-16T04:37:54.747Z,10.20
2022-11-16T04:40:31.959Z,10.15
2022-11-16T04:43:00.528Z,10.13
2022-11-16T04:45:50.241Z,10.09
2022-11-16T04:48:20.100Z,10.07
2022-11-16T04:50:51.147Z,10.05
2022-11-16T04:53:24.021Z,10.02
2022-11-16T04:56:00.831Z,9.98
2022-11-16T04:58:29.202Z,9.96
2022-11-16T05:00:55.984Z,9.93
2022-11-16T05:03:22.895Z,9.94
2022-11-16T05:05:51.816Z,9.91
2022-11-16T05:08:19.022Z,9.95
2022-11-16T05:10:51.008Z,9.90
2022-11-16T05:13:18.065Z,9.92
2022-11-16T05:15:45.266Z,9.87
2022-11-16T05:18:12.484Z,9.86
2022-11-16T05:20:57.834Z,9.82
2022-11-16T05:23:44.629Z,9.82
2022-11-16T05:26:14.717Z,9.83
2022-11-16T05:28:41.587Z,9.89
2022-11-16T05:31:10.534Z,9.89
2022-11-16T05:33:37.254Z,9.87
2022-11-16T05:36:04.656Z,9.85
2022-11-16T05:38:33.192Z,9.86
2022-11-16T05:41:01.205Z,9.87
2022-11-16T05:43:29.416Z,9.83
2022-11-16T05:46:04.661Z,9.80
2022-11-16T05:48:32.157Z,9.83
2022-11-16T05:50:59.768Z,9.85
2022-11-16T05:53:28.804Z,9.86
2022-11-16T05:55:57.120Z,9.82
2022-11-16T05:58:24.512Z,9.79
2022-11-16T06:00:51.739Z,9.78
2022-11-16T06:03:20.010Z,9.78
2022-11-16T06:05:47.139Z,9.78
2022-11-16T06:08:16.472Z,9.77
2022-11-16T06:10:43.294Z,9.78
2022-11-16T06:13:11.471Z,9.77
2022-11-16T06:15:39.474Z,9.76
2022-11-16T06:18:08.908Z,9.72
2022-11-16T06:20:38.314Z,9.68
2022-11-16T06:23:05.523Z,9.69
2022-11-16T06:25:32.506Z,9.65
2022-11-16T06:28:02.911Z,9.69
2022-11-16T06:30:34.640Z,9.62
2022-11-16T06:33:02.830Z,9.54
2022-11-16T06:35:30.242Z,9.52
2022-11-16T06:37:58.200Z,9.51
2022-11-16T06:40:25.713Z,9.54
2022-11-16T06:42:52.691Z,9.60
2022-11-16T06:45:19.718Z,9.59
2022-11-16T06:47:52.302Z,9.63
2022-11-16T06:50:20.092Z,9.65
2022-11-16T06:52:47.573Z,9.64
2022-11-16T06:55:16.114Z,9.65
2022-11-16T06:57:43.079Z,9.62
2022-11-16T07:00:11.377Z,9.62
2022-11-16T07:02:38.796Z,9.60
2022-11-16T07:05:09.552Z,9.59
2022-11-16T07:07:39.379Z,9.57
2022-11-16T07:10:06.439Z,9.55
2022-11-16T07:12:33.259Z,9.59
2022-11-16T07:15:01.523Z,9.57
2022-11-16T07:17:30.942Z,9.56
2022-11-16T07:19:58.099Z,9.56
2022-11-16T07:22:26.523Z,9.54
2022-11-16T07:24:54.328Z,9.51
2022-11-16T07:27:23.416Z,9.52
2022-11-16T07:29:51.640Z,9.46
2022-11-16T07:32:50.778Z,9.49
2022-11-16T07:35:24.408Z,9.52
2022-11-16T07:37:52.679Z,9.50
2022-11-16T07:40:20.132Z,9.53
2022-11-16T07:42:47.138Z,9.56
2022-11-16T07:45:25.586Z,9.59
2022-11-16T07:48:00.942Z,9.61
2022-11-16T07:50:46.212Z,9.64
2022-11-16T07:53:14.910Z,9.69
2022-11-16T07:55:41.641Z,9.73
2022-11-16T07:58:09.287Z,9.73
2022-11-16T08:00:36.302Z,9.79
2022-11-16T08:03:12.553Z,9.81
2022-11-16T08:05:39.504Z,9.81
2022-11-16T08:08:07.010Z,9.80
2022-11-16T08:10:37.545Z,9.84
2022-11-16T08:13:05.199Z,9.85
2022-11-16T08:15:32.092Z,9.82
2022-11-16T08:18:07.648Z,9.77
2022-11-16T08:20:36.636Z,9.75
2022-11-16T08:23:03.683Z,9.71
2022-11-16T08:25:33.826Z,9.70
2022-11-16T08:28:02.063Z,9.66
2022-11-16T08:30:30.195Z,9.64
2022-11-16T08:32:57.837Z,9.63
2022-11-16T08:35:25.801Z,9.61
2022-11-16T08:37:52.625Z,9.58
2022-11-16T08:40:19.571Z,9.54
2022-11-16T08:42:48.006Z,9.51
2022-11-16T08:45:17.884Z,9.50
2022-11-16T08:47:45.383Z,9.48
2022-11-16T08:50:12.230Z,9.46
2022-11-16T08:52:39.727Z,9.51
2022-11-16T08:55:07.692Z,9.56
2022-11-16T08:57:34.543Z,9.58
2022-11-16T09:00:07.025Z,9.61
2022-11-16T09:02:35.481Z,9.65
2022-11-16T09:05:02.324Z,9.68
2022-11-16T09:07:29.118Z,9.71
2022-11-16T09:09:55.943Z,9.75
2022-11-16T09:12:22.832Z,9.83
2022-11-16T09:14:49.613Z,9.96
2022-11-16T09:17:20.309Z,10.01
2022-11-16T09:19:51.278Z,10.05
2022-11-16T09:22:18.146Z,10.13
2022-11-16T09:24:44.997Z,10.27
2022-11-16T09:27:12.004Z,10.35
2022-11-16T09:29:38.892Z,10.50
2022-11-16T09:32:05.724Z,10.82
2022-11-16T09:34:33.775Z,11.63
2022-11-16T09:37:02.107Z,12.12
2022-11-16T09:39:32.448Z,12.53
2022-11-16T09:42:21.321Z,12.73
2022-11-16T09:45:00.465Z,13.07
2022-11-16T09:47:39.506Z,12.70
2022-11-16T09:50:12.643Z,13.19
2022-11-16T09:52:45.838Z,13.00
2022-11-16T09:55:24.702Z,12.92
2022-11-16T09:57:55.548Z,12.51
2022-11-16T10:00:23.887Z,12.46
2022-11-16T10:03:01.555Z,12.34
2022-11-16T10:05:32.814Z,12.61
2022-11-16T10:08:06.541Z,12.83
2022-11-16T10:10:38.597Z,12.84
2022-11-16T10:13:16.253Z,12.65
2022-11-16T10:15:54.025Z,12.65
2022-11-16T10:18:34.794Z,12.30
2022-11-16T10:21:19.660Z,13.07
2022-11-16T10:24:04.611Z,12.28
2022-11-16T10:26:40.216Z,12.48
2022-11-16T10:29:18.996Z,12.38
2022-11-16T10:32:03.237Z,12.86
2022-11-16T10:34:41.728Z,12.73
2022-11-16T10:37:13.223Z,12.59
2022-11-16T10:39:41.425Z,12.31
2022-11-16T10:42:12.695Z,12.54
2022-11-16T10:44:44.003Z,12.37
2022-11-16T10:47:17.248Z,12.45
2022-11-16T10:49:51.778Z,12.26
2022-11-16T10:52:18.623Z,12.38
2022-11-16T10:54:46.874Z,12.64
2022-11-16T10:57:14.305Z,12.60
2022-11-16T10:59:43.262Z,12.29
2022-11-16T11:02:34.812Z,12.34
2022-11-16T11:05:08.472Z,12.26
2022-11-16T11:07:38.017Z,11.85
2022-11-16T11:10:25.031Z,12.10
2022-11-16T11:13:06.589Z,11.82
2022-11-16T11:15:33.864Z,12.23
2022-11-16T11:18:17.446Z,12.29
2022-11-16T11:20:46.920Z,12.72
2022-11-16T11:23:17.590Z,12.86
2022-11-16T11:25:53.495Z,12.81
2022-11-16T11:28:24.647Z,12.70
2022-11-16T11:30:58.164Z,12.30
2022-11-16T11:33:27.167Z,11.70
2022-11-16T11:36:02.949Z,11.28
2022-11-16T11:38:30.856Z,11.29
2022-11-16T11:41:01.048Z,11.31
2022-11-16T11:43:29.741Z,11.38
2022-11-16T11:46:04.584Z,11.20
2022-11-16T11:48:40.158Z,11.13
2022-11-16T11:51:15.213Z,11.19
2022-11-16T11:54:01.046Z,11.21
2022-11-16T11:56:31.916Z,11.17
2022-11-16T11:58:59.151Z,11.21
2022-11-16T12:01:55.156Z,11.38
2022-11-16T12:04:58.439Z,11.48
2022-11-16T12:07:41.733Z,11.40
2022-11-16T12:10:19.158Z,11.31
2022-11-16T12:12:56.195Z,11.33
2022-11-16T12:15:35.901Z,11.33
2022-11-16T12:18:21.097Z,11.25
2022-11-16T12:20:56.567Z,11.28
2022-11-16T12:23:50.369Z,11.29
2022-11-16T12:26:25.630Z,11.21
2022-11-16T12:29:04.109Z,11.24
2022-11-16T12:31:46.606Z,11.33
2022-11-16T12:34:23.945Z,11.33
2022-11-16T12:37:00.704Z,11.35
2022-11-16T12:39:34.462Z,11.28
2022-11-16T12:42:21.602Z,11.18
2022-11-16T12:45:31.983Z,11.22
2022-11-16T12:48:24.382Z,11.32
2022-11-16T12:50:57.507Z,11.34
2022-11-16T12:53:52.609Z,11.39
2022-11-16T12:56:31.561Z,11.37
2022-11-16T12:59:21.972Z,11.35
2022-11-16T13:02:00.620Z,11.19
2022-11-16T13:04:33.209Z,10.96
2022-11-16T13:07:11.084Z,11.00
2022-11-16T13:09:42.547Z,11.21
2022-11-16T13:12:18.148Z,11.23
2022-11-16T13:14:46.843Z,11.28
2022-11-16T13:17:20.781Z,11.19
2022-11-16T13:20:18.683Z,11.10
2022-11-16T13:22:53.695Z,11.09
2022-11-16T13:25:27.368Z,11.07
2022-11-16T13:28:00.712Z,11.05
2022-11-16T13:30:34.584Z,10.99
2022-11-16T13:33:22.299Z,10.99
2022-11-16T13:35:51.779Z,10.97
2022-11-16T13:38:54.741Z,11.01
2022-11-16T13:41:30.917Z,10.93
2022-11-16T13:43:58.796Z,10.95
2022-11-16T13:46:56.472Z,10.93
2022-11-16T13:49:41.578Z,10.89
2022-11-16T13:52:23.086Z,10.79
2022-11-16T13:54:53.068Z,10.83
2022-11-16T13:57:24.957Z,10.78
2022-11-16T14:00:08.626Z,10.80
2022-11-16T14:02:37.803Z,10.75
2022-11-16T14:05:14.902Z,10.73
2022-11-16T14:07:47.412Z,10.69
2022-11-16T14:10:47.546Z,10.66
2022-11-16T14:13:48.617Z,10.60
2022-11-16T14:16:43.159Z,10.54
2022-11-16T14:19:43.847Z,10.47
2022-11-16T14:22:30.433Z,10.44
2022-11-16T14:25:02.538Z,10.38
2022-11-16T14:27:36.048Z,10.33
2022-11-16T14:30:10.392Z,10.30
2022-11-16T14:32:45.854Z,10.26
2022-11-16T14:35:26.293Z,10.24
2022-11-16T14:37:59.652Z,10.27
2022-11-16T14:40:27.108Z,10.21
2022-11-16T14:45:49.680Z,9.99
2022-11-16T14:48:18.596Z,9.95
2022-11-16T14:50:57.544Z,9.95
2022-11-16T14:53:27.850Z,9.93
2022-11-16T14:56:06.314Z,9.89
2022-11-16T14:58:33.445Z,9.79
2022-11-16T15:01:03.602Z,9.82
2022-11-16T15:03:34.868Z,9.78
2022-11-16T15:06:04.252Z,9.75
2022-11-16T15:08:35.295Z,9.73
2022-11-16T15:11:02.647Z,9.70
2022-11-16T15:13:29.542Z,9.79
2022-11-16T15:16:10.437Z,9.79
2022-11-16T15:18:37.295Z,9.69
2022-11-16T15:21:04.259Z,9.61
2022-11-16T15:23:32.472Z,9.54
2022-11-16T15:26:02.543Z,9.40
2022-11-16T15:28:32.131Z,9.30
2022-11-16T15:30:59.947Z,9.26
2022-11-16T15:33:29.917Z,9.20
2022-11-16T15:35:57.516Z,9.13
2022-11-16T15:38:27.110Z,9.06
2022-11-16T15:40:56.113Z,8.99
2022-11-16T15:43:26.616Z,8.88
2022-11-16T15:45:54.264Z,8.86
2022-11-16T15:48:23.560Z,8.82
2022-11-16T15:51:07.286Z,8.72
2022-11-16T15:53:36.870Z,8.71
2022-11-16T15:56:08.422Z,8.65
2022-11-16T15:58:38.397Z,8.57
2022-11-16T16:01:05.486Z,8.58
2022-11-16T16:03:35.111Z,8.62
2022-11-16T16:06:02.638Z,8.70
2022-11-16T16:08:32.831Z,8.76
2022-11-16T16:11:10.586Z,8.68
2022-11-16T16:13:39.864Z,8.66
2022-11-16T16:16:31.402Z,8.57
2022-11-16T16:19:04.920Z,8.48
2022-11-16T16:21:42.471Z,8.38
2022-11-16T16:24:11.499Z,8.36
2022-11-16T16:26:39.615Z,8.33
2022-11-16T16:29:06.348Z,8.31
2022-11-16T16:31:33.098Z,8.30
2022-11-16T16:34:10.718Z,8.35
2022-11-16T16:36:37.814Z,8.43
2022-11-16T16:39:04.580Z,8.50
2022-11-16T16:41:31.325Z,8.56
2022-11-16T16:43:59.354Z,8.51
2022-11-16T16:46:26.163Z,8.60
2022-11-16T16:48:52.927Z,8.61
2022-11-16T16:51:20.613Z,8.65
2022-11-16T16:53:50.744Z,8.62
2022-11-16T16:56:19.368Z,8.73
2022-11-16T16:58:46.171Z,8.81
2022-11-16T17:01:19.305Z,8.84
2022-11-16T17:03:47.244Z,8.89
2022-11-16T17:06:14.427Z,8.82
2022-11-16T17:08:41.138Z,8.84
2022-11-16T17:11:07.922Z,8.81
2022-11-16T17:13:35.164Z,8.77
2022-11-16T17:16:09.454Z,8.71
2022-11-16T17:18:41.144Z,8.76
2022-11-16T17:21:09.600Z,8.86
2022-11-16T17:23:38.095Z,8.81
2022-11-16T17:26:06.522Z,8.91
2022-11-16T17:28:34.139Z,8.93
2022-11-16T17:31:02.312Z,8.92
2022-11-16T17:33:32.793Z,8.91
2022-11-16T17:36:03.983Z,8.82
2022-11-16T17:38:31.080Z,8.83
2022-11-16T17:41:03.214Z,8.93
2022-11-16T17:43:30.113Z,8.90
2022-11-16T17:46:02.536Z,8.86
2022-11-16T17:48:29.295Z,8.83
2022-11-16T17:50:57.755Z,8.87
2022-11-16T17:53:31.315Z,8.86
2022-11-16T17:55:59.393Z,8.89
2022-11-16T17:58:27.030Z,8.82
2022-11-16T18:00:54.173Z,8.75
2022-11-16T18:03:21.126Z,8.76
2022-11-16T18:05:47.910Z,8.69
2022-11-16T18:08:14.685Z,8.62
2022-11-16T18:10:42.907Z,8.64
2022-11-16T18:13:09.753Z,8.64
2022-11-16T18:15:42.187Z,8.69
2022-11-16T18:18:09.552Z,8.74
2022-11-16T18:20:37.821Z,8.80
2022-11-16T18:23:05.266Z,8.78
2022-11-16T18:25:34.530Z,8.72
2022-11-16T18:28:02.818Z,8.71
2022-11-16T18:30:29.680Z,8.73
2022-11-16T18:32:56.572Z,8.68
2022-11-16T18:35:23.524Z,8.66
2022-11-16T18:37:50.466Z,8.63
2022-11-16T18:40:18.126Z,8.66
2022-11-16T18:42:45.120Z,8.65
2022-11-16T18:45:13.498Z,8.64
2022-11-16T18:47:40.224Z,8.63
2022-11-16T18:50:18.054Z,8.59
2022-11-16T18:52:46.410Z,8.66
2022-11-16T18:55:13.362Z,8.69
2022-11-16T18:57:40.053Z,8.59
2022-11-16T19:00:09.461Z,8.58
2022-11-16T19:02:37.639Z,8.49
2022-11-16T19:05:05.197Z,8.51
2022-11-16T19:07:32.001Z,8.48
2022-11-16T19:09:58.809Z,8.43
2022-11-16T19:12:26.164Z,8.43
2022-11-16T19:14:52.840Z,8.48
2022-11-16T19:17:21.072Z,8.54
2022-11-16T19:19:49.361Z,8.65
2022-11-16T19:22:16.428Z,8.70
2022-11-16T19:24:43.354Z,8.76
2022-11-16T19:27:10.273Z,8.85
2022-11-16T19:29:37.377Z,8.88
2022-11-16T19:32:04.664Z,8.94
2022-11-16T19:34:33.460Z,9.02
2022-11-16T19:37:02.043Z,9.10
2022-11-16T19:39:29.186Z,9.16
2022-11-16T19:41:59.854Z,9.15
2022-11-16T19:44:26.999Z,9.14
2022-11-16T19:46:54.541Z,9.24
2022-11-16T19:49:21.940Z,9.29
2022-11-16T19:51:49.609Z,9.40
2022-11-16T19:54:17.922Z,9.39
2022-11-16T19:56:49.333Z,9.41
2022-11-16T19:59:19.032Z,9.40
2022-11-16T20:01:46.720Z,9.33
2022-11-16T20:04:15.423Z,9.33
2022-11-16T20:06:43.999Z,9.24
2022-11-16T20:09:12.263Z,9.17
2022-11-16T20:11:41.751Z,9.16
2022-11-16T20:14:09.755Z,9.08
2022-11-16T20:16:39.544Z,9.13
2022-11-16T20:19:07.233Z,9.11
2022-11-16T20:21:38.942Z,9.14
2022-11-16T20:24:08.805Z,9.12
2022-11-16T20:26:37.340Z,9.17
2022-11-16T20:29:05.526Z,9.17
2022-11-16T20:31:34.158Z,9.13
2022-11-16T20:34:02.120Z,9.16
2022-11-16T20:36:33.300Z,9.05
2022-11-16T20:39:00.950Z,9.14
2022-11-16T20:41:29.261Z,9.13
2022-11-16T20:43:57.978Z,9.12
2022-11-16T20:46:28.400Z,9.18
2022-11-16T20:48:57.388Z,9.22
2022-11-16T20:51:24.299Z,9.20
2022-11-16T20:53:52.318Z,9.28
2022-11-16T20:56:20.075Z,9.26
2022-11-16T20:58:48.002Z,9.22
2022-11-16T21:01:16.363Z,9.16
2022-11-16T21:03:45.272Z,9.23
2022-11-16T21:06:13.000Z,9.21
2022-11-16T21:08:41.360Z,9.12
2022-11-16T21:11:11.867Z,9.15
2022-11-16T21:13:57.633Z,9.08
2022-11-16T21:16:24.439Z,9.06
2022-11-16T21:18:53.446Z,9.01
2022-11-16T21:21:20.172Z,9.07
2022-11-16T21:23:51.740Z,9.06
2022-11-16T21:26:20.870Z,9.08
2022-11-16T21:28:48.100Z,9.09
2022-11-16T21:31:19.157Z,9.08
2022-11-16T21:33:47.347Z,9.09
2022-11-16T21:36:20.252Z,9.15
2022-11-16T21:38:47.186Z,9.19
2022-11-16T21:41:16.458Z,9.19
2022-11-16T21:43:44.112Z,9.11
2022-11-16T21:46:12.692Z,9.17
2022-11-16T21:48:39.628Z,9.17
2022-11-16T21:51:08.488Z,9.17
2022-11-16T21:53:37.650Z,9.10
2022-11-16T21:56:05.978Z,9.12
2022-11-16T21:58:32.892Z,9.09
2022-11-16T22:01:01.466Z,9.12
2022-11-16T22:03:30.175Z,9.16
2022-11-16T22:06:17.040Z,9.12
2022-11-16T22:08:45.576Z,9.13
2022-11-16T22:11:13.281Z,9.07
2022-11-16T22:13:40.684Z,9.05
2022-11-16T22:16:09.551Z,9.01
2022-11-16T22:18:37.000Z,9.00
2022-11-16T22:21:04.512Z,8.96
2022-11-16T22:23:32.243Z,8.88
2022-11-16T22:26:02.458Z,8.87
2022-11-16T22:28:29.237Z,8.82
2022-11-16T22:31:00.907Z,8.79
2022-11-16T22:33:28.213Z,8.80
2022-11-16T22:35:54.970Z,8.79
2022-11-16T22:38:22.292Z,8.73
2022-11-16T22:40:50.701Z,8.71
2022-11-16T22:43:19.095Z,8.76
2022-11-16T22:45:46.337Z,8.66
2022-11-16T22:48:13.181Z,8.77
2022-11-16T22:50:40.010Z,8.82
2022-11-16T22:53:06.823Z,8.82
2022-11-16T22:55:34.985Z,8.82
2022-11-16T22:58:01.823Z,8.77
2022-11-16T23:00:29.901Z,8.74
2022-11-16T23:02:57.035Z,8.65
2022-11-16T23:05:23.807Z,8.59
2022-11-16T23:07:50.548Z,8.55
2022-11-16T23:10:18.098Z,8.53
2022-11-16T23:13:03.361Z,8.52
2022-11-16T23:15:50.156Z,8.42
2022-11-16T23:18:18.143Z,8.46
2022-11-16T23:21:03.566Z,8.50
2022-11-16T23:23:48.858Z,8.51
2022-11-16T23:26:40.633Z,8.53
2022-11-16T23:29:09.928Z,8.51
2022-11-16T23:31:38.650Z,8.55
2022-11-16T23:34:05.755Z,8.53
2022-11-16T23:36:32.437Z,8.54
2022-11-16T23:38:59.137Z,8.56
2022-11-16T23:41:44.395Z,8.59
2022-11-16T23:44:11.174Z,8.61
2022-11-16T23:46:39.354Z,8.66
2022-11-16T23:49:06.142Z,8.68
2022-11-16T23:51:35.770Z,8.70
2022-11-16T23:54:02.498Z,8.78
2022-11-16T23:56:29.403Z,8.84
2022-11-16T23:58:57.490Z,8.83
